createdAt,value
2018-07-11T00:01:59.583Z,19.43
2018-07-11T00:04:27.244Z,18.40
2018-07-11T00:06:55.013Z,17.73
2018-07-11T00:09:22.667Z,17.27
2018-07-11T00:11:50.356Z,17.67
2018-07-11T00:14:17.994Z,18.43
2018-07-11T00:16:51.259Z,17.83
2018-07-11T00:19:19.101Z,17.73
2018-07-11T00:21:46.674Z,19.37
2018-07-11T00:24:14.726Z,22.43
2018-07-11T00:26:42.441Z,21.90
2018-07-11T00:29:10.220Z,20.83
2018-07-11T00:31:37.905Z,20.43
2018-07-11T00:34:05.698Z,18.47
2018-07-11T00:36:33.482Z,19.03
2018-07-11T00:39:01.236Z,19.10
2018-07-11T00:41:29.110Z,20.37
2018-07-11T00:43:57.275Z,19.30
2018-07-11T00:46:25.043Z,19.53
2018-07-11T00:48:52.741Z,21.23
2018-07-11T00:51:20.442Z,21.43
2018-07-11T00:53:48.642Z,21.03
2018-07-11T00:56:21.141Z,22.37
2018-07-11T00:58:54.734Z,21.93
2018-07-11T01:01:22.359Z,23.00
2018-07-11T01:03:59.825Z,22.27
2018-07-11T01:06:29.817Z,23.93
2018-07-11T01:08:58.498Z,22.40
2018-07-11T01:11:31.410Z,25.60
2018-07-11T01:13:59.061Z,23.53
2018-07-11T01:16:26.725Z,25.07
2018-07-11T01:19:00.546Z,22.30
2018-07-11T01:21:28.654Z,23.33
2018-07-11T01:23:56.231Z,23.83
2018-07-11T01:26:26.369Z,23.70
2018-07-11T01:28:54.263Z,23.33
2018-07-11T01:31:22.365Z,21.00
2018-07-11T01:33:49.974Z,19.93
2018-07-11T01:36:17.732Z,20.73
2018-07-11T01:38:45.530Z,20.00
2018-07-11T01:41:14.678Z,19.37
2018-07-11T01:43:42.709Z,20.67
2018-07-11T01:46:10.410Z,20.57
2018-07-11T01:48:38.079Z,20.00
2018-07-11T01:51:06.282Z,19.83
2018-07-11T01:53:34.039Z,20.63
2018-07-11T01:56:02.119Z,20.20
2018-07-11T01:58:30.249Z,21.30
2018-07-11T02:00:58.048Z,21.20
2018-07-11T02:03:25.655Z,21.60
2018-07-11T02:05:53.788Z,21.27
2018-07-11T02:08:22.421Z,21.37
2018-07-11T02:10:50.106Z,20.50
2018-07-11T02:13:17.781Z,20.60
2018-07-11T02:15:47.050Z,19.40
2018-07-11T02:18:16.193Z,22.10
2018-07-11T02:20:44.017Z,20.13
2018-07-11T02:23:11.607Z,21.20
2018-07-11T02:25:39.375Z,20.20
2018-07-11T02:28:07.315Z,19.90
2018-07-11T02:30:35.481Z,19.00
2018-07-11T02:33:03.423Z,19.03
2018-07-11T02:35:31.054Z,18.60
2018-07-11T02:37:58.689Z,19.97
2018-07-11T02:40:26.404Z,20.30
2018-07-11T02:42:54.143Z,21.53
2018-07-11T02:45:21.788Z,21.80
2018-07-11T02:47:49.515Z,21.53
2018-07-11T02:50:17.373Z,22.00
2018-07-11T02:52:45.058Z,20.10
2018-07-11T02:55:12.741Z,20.03
2018-07-11T02:57:40.306Z,21.40
2018-07-11T03:00:08.140Z,20.67
2018-07-11T03:02:36.032Z,20.80
2018-07-11T03:05:03.995Z,20.90
2018-07-11T03:07:31.784Z,20.80
2018-07-11T03:09:59.419Z,18.67
2018-07-11T03:12:27.139Z,19.30
2018-07-11T03:14:54.718Z,19.40
2018-07-11T03:17:22.335Z,21.43
2018-07-11T03:19:49.952Z,21.07
2018-07-11T03:22:18.286Z,20.23
2018-07-11T03:24:45.804Z,21.73
2018-07-11T03:27:13.486Z,23.00
2018-07-11T03:29:41.449Z,23.33
2018-07-11T03:32:09.454Z,22.60
2018-07-11T03:34:37.250Z,21.23
2018-07-11T03:37:04.954Z,20.33
2018-07-11T03:39:33.199Z,21.77
2018-07-11T03:42:00.870Z,22.90
2018-07-11T03:44:28.506Z,20.37
2018-07-11T03:46:56.338Z,20.80
2018-07-11T03:49:23.924Z,21.43
2018-07-11T03:51:51.556Z,20.10
2018-07-11T03:54:19.183Z,21.60
2018-07-11T03:56:46.784Z,21.87
2018-07-11T03:59:14.479Z,19.87
2018-07-11T04:01:42.229Z,21.77
2018-07-11T04:04:09.822Z,24.27
2018-07-11T04:06:37.560Z,24.57
2018-07-11T04:09:05.489Z,25.90
2018-07-11T04:11:33.000Z,25.10
2018-07-11T04:14:00.540Z,24.13
2018-07-11T04:16:28.062Z,24.83
2018-07-11T04:18:55.703Z,25.27
2018-07-11T04:21:23.312Z,22.47
2018-07-11T04:23:50.937Z,23.77
2018-07-11T04:26:18.907Z,21.53
2018-07-11T04:28:46.580Z,23.97
2018-07-11T04:31:14.493Z,26.73
2018-07-11T04:33:42.037Z,25.40
2018-07-11T04:36:09.786Z,27.00
2018-07-11T04:38:37.487Z,25.43
2018-07-11T04:41:05.304Z,26.10
2018-07-11T04:43:33.002Z,23.67
2018-07-11T04:46:00.733Z,26.07
2018-07-11T04:48:28.500Z,26.47
2018-07-11T04:50:56.061Z,27.90
2018-07-11T04:53:25.864Z,26.43
2018-07-11T04:55:57.507Z,28.60
2018-07-11T04:58:25.375Z,26.73
2018-07-11T05:00:53.162Z,26.93
2018-07-11T05:03:20.806Z,24.70
2018-07-11T05:05:48.361Z,24.87
2018-07-11T05:08:15.975Z,24.30
2018-07-11T05:10:43.700Z,25.23
2018-07-11T05:13:11.382Z,25.27
2018-07-11T05:15:39.026Z,24.17
2018-07-11T05:18:07.088Z,24.80
2018-07-11T05:20:34.806Z,29.50
2018-07-11T05:23:03.876Z,25.07
2018-07-11T05:25:31.425Z,23.90
2018-07-11T05:28:00.960Z,24.77
2018-07-11T05:30:28.823Z,25.07
2018-07-11T05:32:57.503Z,24.03
2018-07-11T05:35:25.149Z,25.17
2018-07-11T05:37:53.010Z,23.73
2018-07-11T05:40:20.859Z,22.63
2018-07-11T05:42:48.630Z,23.53
2018-07-11T05:45:16.270Z,25.60
2018-07-11T05:47:44.008Z,22.33
2018-07-11T05:50:12.961Z,24.37
2018-07-11T05:52:42.820Z,20.10
2018-07-11T05:55:10.402Z,21.77
2018-07-11T05:57:38.082Z,21.20
2018-07-11T06:00:05.872Z,21.20
2018-07-11T06:02:34.252Z,22.13
2018-07-11T06:05:01.918Z,20.20
2018-07-11T06:07:29.631Z,19.57
2018-07-11T06:09:57.314Z,19.67
2018-07-11T06:12:24.839Z,18.30
2018-07-11T06:14:52.769Z,20.43
2018-07-11T06:17:20.490Z,21.30
2018-07-11T06:19:52.687Z,19.70
2018-07-11T06:22:20.312Z,20.87
2018-07-11T06:24:47.894Z,22.63
2018-07-11T06:27:15.479Z,20.80
2018-07-11T06:29:45.753Z,20.47
2018-07-11T06:32:13.405Z,18.93
2018-07-11T06:34:41.024Z,18.47
2018-07-11T06:37:08.639Z,18.10
2018-07-11T06:39:37.406Z,16.90
2018-07-11T06:42:05.811Z,19.70
2018-07-11T06:44:35.044Z,17.07
2018-07-11T06:47:08.675Z,15.97
2018-07-11T06:49:36.439Z,15.63
2018-07-11T06:52:04.326Z,17.03
2018-07-11T06:54:31.889Z,16.07
2018-07-11T06:56:59.473Z,14.50
2018-07-11T06:59:27.561Z,14.43
2018-07-11T07:01:55.158Z,14.20
2018-07-11T07:04:23.115Z,13.30
2018-07-11T07:06:50.885Z,13.83
2018-07-11T07:09:18.427Z,13.90
2018-07-11T07:11:46.029Z,14.70
2018-07-11T07:14:13.979Z,14.80
2018-07-11T07:16:41.629Z,12.50
2018-07-11T07:19:09.206Z,13.23
2018-07-11T07:21:36.907Z,12.70
2018-07-11T07:24:04.712Z,12.90
2018-07-11T07:26:33.100Z,12.37
2018-07-11T07:29:00.725Z,10.10
2018-07-11T07:31:28.363Z,10.30
2018-07-11T07:33:56.364Z,10.70
2018-07-11T07:36:23.996Z,9.40
2018-07-11T07:38:51.708Z,8.97
2018-07-11T07:41:19.283Z,12.20
2018-07-11T07:43:47.720Z,10.77
2018-07-11T07:46:15.453Z,9.10
2018-07-11T07:48:43.242Z,9.27
2018-07-11T07:51:12.292Z,8.80
2018-07-11T07:53:40.168Z,9.63
2018-07-11T07:56:07.979Z,9.20
2018-07-11T07:58:35.883Z,8.90
2018-07-11T08:01:03.809Z,9.60
2018-07-11T08:03:34.047Z,9.20
2018-07-11T08:06:01.741Z,9.90
2018-07-11T08:08:30.444Z,9.60
2018-07-11T08:10:58.051Z,9.10
2018-07-11T08:13:29.023Z,8.67
2018-07-11T08:15:56.903Z,8.77
2018-07-11T08:18:25.713Z,8.30
2018-07-11T08:20:53.843Z,7.70
2018-07-11T08:23:39.270Z,7.63
2018-07-11T08:26:18.383Z,6.93
2018-07-11T08:29:59.932Z,5.77
2018-07-11T08:32:47.466Z,6.50
2018-07-11T08:35:40.630Z,6.40
2018-07-11T08:38:22.037Z,6.90
2018-07-11T08:41:10.739Z,6.17
2018-07-11T08:43:48.041Z,6.63
2018-07-11T08:46:28.382Z,6.83
2018-07-11T08:53:26.722Z,7.23
2018-07-11T08:58:15.278Z,7.40
2018-07-11T09:02:07.103Z,7.10
2018-07-11T09:04:48.849Z,6.93
2018-07-11T09:09:40.250Z,6.03
2018-07-11T09:12:26.730Z,5.43
2018-07-11T09:15:06.363Z,6.00
2018-07-11T09:20:02.330Z,6.30
2018-07-11T09:24:45.458Z,5.47
2018-07-11T09:27:14.310Z,5.10
2018-07-11T09:29:42.902Z,4.77
2018-07-11T09:32:11.308Z,5.30
2018-07-11T09:35:03.680Z,6.00
2018-07-11T09:37:31.672Z,5.60
2018-07-11T09:40:00.290Z,4.70
2018-07-11T09:42:28.035Z,6.13
2018-07-11T09:44:55.710Z,5.00
2018-07-11T09:47:26.435Z,4.57
2018-07-11T09:49:54.082Z,4.40
2018-07-11T09:52:23.781Z,4.30
2018-07-11T09:54:51.695Z,4.33
2018-07-11T09:57:19.670Z,5.13
2018-07-11T09:59:47.374Z,4.70
2018-07-11T10:02:15.132Z,4.07
2018-07-11T10:04:42.937Z,3.77
2018-07-11T10:07:14.836Z,4.83
2018-07-11T10:10:03.586Z,4.33
2018-07-11T10:12:31.480Z,4.37
2018-07-11T10:14:59.274Z,3.87
2018-07-11T10:17:32.607Z,3.60
2018-07-11T10:20:00.164Z,3.70
2018-07-11T10:22:29.971Z,4.27
2018-07-11T10:24:57.750Z,4.37
2018-07-11T10:27:25.407Z,3.70
2018-07-11T10:29:53.040Z,5.73
2018-07-11T10:32:20.812Z,5.00
2018-07-11T10:34:48.778Z,5.17
2018-07-11T10:37:16.502Z,4.70
2018-07-11T10:39:45.728Z,4.53
2018-07-11T10:42:13.375Z,4.73
2018-07-11T10:44:41.256Z,3.90
2018-07-11T10:47:12.149Z,4.43
2018-07-11T10:49:40.339Z,3.67
2018-07-11T10:52:08.451Z,3.90
2018-07-11T10:54:36.375Z,3.37
2018-07-11T10:57:04.456Z,3.70
2018-07-11T10:59:36.235Z,3.47
2018-07-11T11:02:05.146Z,2.87
2018-07-11T11:04:33.999Z,3.50
2018-07-11T11:07:01.663Z,3.63
2018-07-11T11:09:31.525Z,4.40
2018-07-11T11:12:01.560Z,3.57
2018-07-11T11:14:44.654Z,3.93
2018-07-11T11:17:14.252Z,3.57
2018-07-11T11:19:43.184Z,3.10
2018-07-11T11:22:11.047Z,2.70
2018-07-11T11:24:38.874Z,3.43
2018-07-11T11:27:06.640Z,4.73
2018-07-11T11:29:34.397Z,3.53
2018-07-11T11:32:05.620Z,3.60
2018-07-11T11:34:33.475Z,4.30
2018-07-11T11:37:01.212Z,3.37
2018-07-11T11:39:30.005Z,3.77
2018-07-11T11:42:05.648Z,3.27
2018-07-11T11:44:33.480Z,3.23
2018-07-11T11:47:02.440Z,3.73
2018-07-11T11:49:31.552Z,2.90
2018-07-11T11:52:01.490Z,3.40
2018-07-11T11:54:29.395Z,3.43
2018-07-11T11:56:57.690Z,3.60
2018-07-11T11:59:25.329Z,2.57
2018-07-11T12:01:53.152Z,2.50
2018-07-11T12:04:20.722Z,3.17
2018-07-11T12:06:49.399Z,3.57
2018-07-11T12:09:17.178Z,2.20
2018-07-11T12:11:44.971Z,2.80
2018-07-11T12:14:12.600Z,3.47
2018-07-11T12:16:40.434Z,2.30
2018-07-11T12:19:09.254Z,2.43
2018-07-11T12:21:41.529Z,2.70
2018-07-11T12:24:09.295Z,3.43
2018-07-11T12:26:37.994Z,2.40
2018-07-11T12:29:05.640Z,3.20
2018-07-11T12:31:34.528Z,2.90
2018-07-11T12:34:02.435Z,2.90
2018-07-11T12:36:30.622Z,3.73
2018-07-11T12:38:59.332Z,3.37
2018-07-11T12:41:26.904Z,3.77
2018-07-11T12:43:54.511Z,3.10
2018-07-11T12:46:23.174Z,3.53
2018-07-11T12:48:56.313Z,3.70
2018-07-11T12:51:23.974Z,3.83
2018-07-11T12:53:51.787Z,3.90
2018-07-11T12:56:21.567Z,3.47
2018-07-11T12:58:49.377Z,4.50
2018-07-11T13:01:18.092Z,4.20
2018-07-11T13:03:46.920Z,3.87
2018-07-11T13:06:14.673Z,3.50
2018-07-11T13:08:42.444Z,4.10
2018-07-11T13:11:12.431Z,3.97
2018-07-11T13:13:40.154Z,3.60
2018-07-11T13:16:08.027Z,3.97
2018-07-11T13:18:35.912Z,3.70
2018-07-11T13:21:06.005Z,3.37
2018-07-11T13:23:33.668Z,3.20
2018-07-11T13:26:01.414Z,3.87
2018-07-11T13:28:30.194Z,3.30
2018-07-11T13:30:58.209Z,3.53
2018-07-11T13:33:26.023Z,3.43
2018-07-11T13:35:53.724Z,3.33
2018-07-11T13:38:21.632Z,3.83
2018-07-11T13:40:50.379Z,3.37
2018-07-11T13:43:19.193Z,3.03
2018-07-11T13:45:47.002Z,2.60
2018-07-11T13:48:14.752Z,2.40
2018-07-11T13:50:43.434Z,3.43
2018-07-11T13:53:29.568Z,3.13
2018-07-11T13:55:57.415Z,3.13
2018-07-11T13:58:25.099Z,3.77
2018-07-11T14:00:53.718Z,3.00
2018-07-11T14:03:21.436Z,2.60
2018-07-11T14:05:49.102Z,2.80
2018-07-11T14:08:16.748Z,3.10
2018-07-11T14:10:45.368Z,3.60
2018-07-11T14:13:12.981Z,3.30
2018-07-11T14:15:40.769Z,3.27
2018-07-11T14:18:08.396Z,3.00
2018-07-11T14:20:37.275Z,3.60
2018-07-11T14:23:07.750Z,3.80
2018-07-11T14:25:38.751Z,3.30
2018-07-11T14:28:06.604Z,3.50
2018-07-11T14:30:36.255Z,3.90
2018-07-11T14:33:05.627Z,3.20
2018-07-11T14:35:33.741Z,3.00
2018-07-11T14:38:01.402Z,4.87
2018-07-11T14:40:30.326Z,2.70
2018-07-11T14:42:58.463Z,3.17
2018-07-11T14:45:28.999Z,3.33
2018-07-11T14:48:01.186Z,4.40
2018-07-11T14:50:29.423Z,5.03
2018-07-11T14:52:57.358Z,4.70
2018-07-11T14:55:25.079Z,4.70
2018-07-11T14:57:52.706Z,4.37
2018-07-11T15:00:20.599Z,4.60
2018-07-11T15:02:48.236Z,5.63
2018-07-11T15:05:15.819Z,6.00
2018-07-11T15:07:44.603Z,5.53
2018-07-11T15:10:14.640Z,6.07
2018-07-11T15:12:42.908Z,6.57
2018-07-11T15:15:10.692Z,6.90
2018-07-11T15:17:38.357Z,6.20
2018-07-11T15:20:06.115Z,6.03
2018-07-11T15:22:33.973Z,5.83
2018-07-11T15:25:02.278Z,6.20
2018-07-11T15:27:30.506Z,5.93
2018-07-11T15:29:58.332Z,5.70
2018-07-11T15:32:26.027Z,5.80
2018-07-11T15:34:54.739Z,5.73
2018-07-11T15:37:23.784Z,4.87
2018-07-11T15:39:52.594Z,5.27
2018-07-11T15:42:20.466Z,5.90
2018-07-11T15:44:49.938Z,24.47
2018-07-11T15:47:20.651Z,5.57
2018-07-11T15:49:51.187Z,6.30
2018-07-11T15:52:26.212Z,5.70
2018-07-11T15:54:57.646Z,5.60
2018-07-11T15:57:39.421Z,5.20
2018-07-11T16:00:10.792Z,4.20
2018-07-11T16:02:42.619Z,4.50
2018-07-11T16:05:13.236Z,4.03
2018-07-11T16:07:43.710Z,3.93
2018-07-11T16:10:12.451Z,4.10
2018-07-11T16:12:40.936Z,3.40
2018-07-11T16:15:08.656Z,4.60
2018-07-11T16:17:36.353Z,4.40
2018-07-11T16:20:04.180Z,4.33
2018-07-11T16:22:31.903Z,4.60
2018-07-11T16:25:00.122Z,4.50
2018-07-11T16:27:27.772Z,4.60
2018-07-11T16:29:55.809Z,4.77
2018-07-11T16:32:23.408Z,4.47
2018-07-11T16:34:50.999Z,6.03
2018-07-11T16:37:18.889Z,5.23
2018-07-11T16:39:46.566Z,6.13
2018-07-11T16:42:15.030Z,6.20
2018-07-11T16:44:43.139Z,5.53
2018-07-11T16:47:10.842Z,5.60
2018-07-11T16:49:40.307Z,5.73
2018-07-11T16:52:08.164Z,7.37
2018-07-11T16:54:36.431Z,5.80
2018-07-11T16:57:04.731Z,6.60
2018-07-11T16:59:51.058Z,6.20
2018-07-11T17:02:22.509Z,6.87
2018-07-11T17:04:53.239Z,6.33
2018-07-11T17:07:23.496Z,6.90
2018-07-11T17:10:05.138Z,6.30
2018-07-11T17:12:33.195Z,6.30
2018-07-11T17:15:01.447Z,7.20
2018-07-11T17:17:33.830Z,7.80
2018-07-11T17:20:09.580Z,6.00
2018-07-11T17:22:44.374Z,6.60
2018-07-11T17:25:12.062Z,7.30
2018-07-11T17:27:39.800Z,7.97
2018-07-11T17:30:08.476Z,7.77
2018-07-11T17:32:36.500Z,7.00
2018-07-11T17:35:04.434Z,6.37
2018-07-11T17:37:33.841Z,7.50
2018-07-11T17:40:06.937Z,7.47
2018-07-11T17:42:35.081Z,6.80
2018-07-11T17:45:10.388Z,7.40
2018-07-11T17:48:14.778Z,7.50
2018-07-11T17:50:42.532Z,7.20
2018-07-11T17:53:21.294Z,6.60
2018-07-11T17:55:58.701Z,7.37
2018-07-11T17:59:07.090Z,7.40
2018-07-11T18:01:39.959Z,6.90
2018-07-11T18:04:14.544Z,8.10
2018-07-11T18:06:55.909Z,7.37
2018-07-11T18:09:23.733Z,7.33
2018-07-11T18:11:56.378Z,7.70
2018-07-11T18:14:28.899Z,7.47
2018-07-11T18:17:03.208Z,7.30
2018-07-11T18:20:41.963Z,8.30
2018-07-11T18:23:20.749Z,8.87
2018-07-11T18:28:02.738Z,8.17
2018-07-11T18:30:37.109Z,8.07
2018-07-11T18:33:19.808Z,8.47
2018-07-11T18:38:00.489Z,9.07
2018-07-11T18:40:32.770Z,8.30
2018-07-11T18:44:17.650Z,8.93
2018-07-11T18:47:10.123Z,9.40
2018-07-11T18:51:55.471Z,8.57
2018-07-11T18:54:33.380Z,8.60
2018-07-11T18:57:05.096Z,9.93
2018-07-11T18:59:55.093Z,9.87
2018-07-11T19:03:37.329Z,8.90
2018-07-11T19:06:15.444Z,9.53
2018-07-11T19:09:18.963Z,9.97
2018-07-11T19:11:52.797Z,10.03
2018-07-11T19:14:42.099Z,11.10
2018-07-11T19:17:31.768Z,11.50
2018-07-11T19:20:36.282Z,13.07
2018-07-11T19:25:17.225Z,13.00
2018-07-11T19:27:54.234Z,16.87
2018-07-11T19:30:36.260Z,17.60
2018-07-11T19:33:14.551Z,17.17
2018-07-11T19:35:49.755Z,18.50
2018-07-11T19:38:26.897Z,17.40
2018-07-11T19:41:07.262Z,17.37
2018-07-11T19:43:46.138Z,18.57
2018-07-11T19:48:30.852Z,18.90
2018-07-11T19:51:13.308Z,18.50
2018-07-11T19:54:06.097Z,18.40
2018-07-11T19:56:39.439Z,18.10
2018-07-11T19:59:07.855Z,18.20
2018-07-11T20:01:36.537Z,19.30
2018-07-11T20:04:04.280Z,19.50
2018-07-11T20:06:32.041Z,18.80
2018-07-11T20:08:59.795Z,18.33
2018-07-11T20:11:28.771Z,19.70
2018-07-11T20:13:58.378Z,20.47
2018-07-11T20:16:26.105Z,21.47
2018-07-11T20:18:54.013Z,20.20
2018-07-11T20:21:28.412Z,21.20
2018-07-11T20:23:56.592Z,22.13
2018-07-11T20:26:25.366Z,21.93
2018-07-11T20:28:53.044Z,23.90
2018-07-11T20:31:21.874Z,25.40
2018-07-11T20:33:49.626Z,24.03
2018-07-11T20:36:17.238Z,23.30
2018-07-11T20:38:44.962Z,25.27
2018-07-11T20:41:12.694Z,25.37
2018-07-11T20:43:40.562Z,25.93
2018-07-11T20:46:08.734Z,27.20
2018-07-11T20:48:38.551Z,25.37
2018-07-11T20:51:06.595Z,29.10
2018-07-11T20:53:34.447Z,26.23
2018-07-11T20:56:02.043Z,30.33
2018-07-11T20:58:40.889Z,30.10
2018-07-11T21:01:19.630Z,29.53
2018-07-11T21:06:10.180Z,31.77
2018-07-11T21:09:54.624Z,30.60
2018-07-11T21:12:31.845Z,32.53
2018-07-11T21:15:10.543Z,30.37
2018-07-11T21:17:53.667Z,32.93
2018-07-11T21:20:21.320Z,31.33
2018-07-11T21:22:48.976Z,31.90
2018-07-11T21:25:16.557Z,32.80
2018-07-11T21:27:44.197Z,32.77
2018-07-11T21:30:11.803Z,33.90
2018-07-11T21:32:39.421Z,32.10
2018-07-11T21:35:07.142Z,30.67
2018-07-11T21:37:34.792Z,30.77
2018-07-11T21:40:02.381Z,30.27
2018-07-11T21:42:30.043Z,30.17
2018-07-11T21:44:57.644Z,31.40
2018-07-11T21:47:25.208Z,29.37
2018-07-11T21:49:52.994Z,32.60
2018-07-11T21:52:20.645Z,32.87
2018-07-11T21:54:48.356Z,33.37
2018-07-11T21:57:16.106Z,36.03
2018-07-11T21:59:44.159Z,35.30
2018-07-11T22:02:12.004Z,36.00
2018-07-11T22:04:39.768Z,36.40
2018-07-11T22:07:07.733Z,36.43
2018-07-11T22:09:35.487Z,37.63
2018-07-11T22:12:03.113Z,35.47
2018-07-11T22:14:30.782Z,37.80
2018-07-11T22:19:10.456Z,37.50
2018-07-11T22:21:37.088Z,33.13
2018-07-11T22:24:03.599Z,35.03
2018-07-11T22:26:30.337Z,32.50
2018-07-11T22:28:56.778Z,35.87
2018-07-11T22:31:23.339Z,35.27
2018-07-11T22:33:49.809Z,37.63
2018-07-11T22:36:16.312Z,37.37
2018-07-11T22:38:42.852Z,37.93
2018-07-11T22:41:09.346Z,38.53
2018-07-11T22:43:35.893Z,37.43
2018-07-11T22:46:04.279Z,41.33
2018-07-11T22:48:30.787Z,39.83
2018-07-11T22:50:57.480Z,37.77
2018-07-11T22:53:24.186Z,37.10
2018-07-11T22:55:50.743Z,35.20
2018-07-11T22:58:17.230Z,36.00
2018-07-11T23:00:43.700Z,35.97
2018-07-11T23:03:10.226Z,37.23
2018-07-11T23:05:36.839Z,38.70
2018-07-11T23:08:03.374Z,39.50
2018-07-11T23:10:29.952Z,40.50
2018-07-11T23:12:56.440Z,37.30
2018-07-11T23:15:22.895Z,38.30
2018-07-11T23:17:49.387Z,34.80
2018-07-11T23:20:15.888Z,37.40
2018-07-11T23:22:42.407Z,39.30
2018-07-11T23:25:08.868Z,37.10
2018-07-11T23:27:35.630Z,36.70
2018-07-11T23:30:02.181Z,37.03
2018-07-11T23:32:28.702Z,40.10
2018-07-11T23:34:55.243Z,40.30
2018-07-11T23:37:21.927Z,41.70
2018-07-11T23:39:48.659Z,40.33
2018-07-11T23:42:15.122Z,35.67
2018-07-11T23:44:41.666Z,35.63
2018-07-11T23:47:08.147Z,38.40
2018-07-11T23:49:34.660Z,38.13
2018-07-11T23:52:01.232Z,37.77
2018-07-11T23:54:27.726Z,40.77
2018-07-11T23:56:54.476Z,36.77
2018-07-11T23:59:20.931Z,37.20
